Accueil
METAR-TAF:

METAR-TAF

Aéroports :

Springfield-Branson Regional Airport

Springfield, Missouri, États-Unis

latitude: 37-14-23N, longitude: 093-23-23W, altitude: 386 m

Observation

Le bulletin a été fait il y a 27 minutes, à 19:52 UTC
Vent 4 kt de direction variable
Température 30°C
Humidité 49%
Pression 1016 hPa
Visibilité: 16.1 km
Ciel clair

METAR: KSGF 121952Z VRB04KT 10SM CLR 30/18 A2999 RMK AO2 SLP143 T03000178

Heure: 15:19 (20:19 UTC)

Prévision

Le bulletin a été fait il y a 2 heures et 45 minutes, à 17:34 UTC
Prévision valable du 12 à 18 UTC au 13 à 18 UTC
Vent 6 kt de sud-est
Visibilité: 10 km
Nuages épars à une hauteur de 3000 ft
A partir de 13 à 0000 UTC
Vent 5 kt de est
Visibilité: 10 km
Nuages épars à une hauteur de 25000 ft

TAF: KSGF 121734Z 1218/1318 13006KT P6SM SCT030 FM130000 09005KT P6SM SCT250

Observations et prévisions météorologiques de plus de 4000 aéroports (messages METAR et TAF).

Les stations disponibles sont représentées par des disques jaunes et rouges sur la carte.

Passer la souris dessus pour voir le nom de la station.

Cliquer dessus pour voir les observations et prévisions météorologiques.

Pour changer de carte: cliquez sur les boutons verts avec une croix noire pour zoomer, sur le bouton vert avec un tiret pour effectuer un zoom arrière, ou sur les flèches vertes pour les cartes adjacentes.


METAR-TAF: